Kashan, Iran

9:54 AM IRST on September 23, 2014 (GMT +0330)
Kashan | Change Station
CLOSE
Current Station
Airport
Location: Kashan,
Elevation: 3222 ft
Nearby Weather Stations

Elev 3222 ft 33.98 °N, 51.45 °E | Updated 1 hour ago

Clear
Clear
79 °F
Feels Like 79 °F
N
0
Wind Variable Wind from North

Today
High -- | Low -- °F
--% Chance of Precip.
Yesterday
High -- | Low -- °F
Precip. -- in
5:52 AM 6:00 PM
Waning Crescent, 1% visible
Pressure 29.95 in
Visibility -9999.0 miles
Clouds
Dew Point 46 °F
Humidity 32%
Rainfall 0.00 in
Snow Depth Not available.
UV Not available.
Pollen Not available.
Air Quality Not available.
Flu Activity Not available.
METAR OIFK 230500Z 00000KT CAVOK 26/08 Q1014

More Conditions Fewer Conditions

Pressure 29.95 in
Visibility -9999.0 miles
Clouds
Dew Point 46 °F
Humidity 32%
Rainfall 0.00 in
Snow Depth Not available.
UV Not available.
Pollen Not available.
Air Quality Not available.
Flu Activity Not available.
METAR OIFK 230500Z 00000KT CAVOK 26/08 Q1014

More Conditions Fewer Conditions

10-Day Weather Forecast

Almanac

Astronomy

Sep. 23, 2014 Rise Set
Actual Time 5:52 AM IRST 6:00 PM IRST
Civil Twilight 5:27 AM IRST 6:24 PM IRST
Nautical Twilight 4:58 AM IRST 6:54 PM IRST
Astronomical Twilight 4:29 AM IRST 7:23 PM IRST
Moon 4:56 AM IRST 5:26 PM IRST
Length of Visible Light 12h 57m
Length of Day
12h 07m
Tomorrow will be 2m 6s shorter.
Waning Crescent, 1% of the Moon is Illuminated
Today
Waning Crescent
Sep 24
New
Oct 1
First Quarter
Oct 8
Full
Oct 15
Last Quarter

Yesterday's Extremes

Country Highs Country Lows

Community

WunderPhotos

Upload Photos

1,755,608 photos uploaded!

Nearby

Snow Depth

Not available.

Earthquake Activity

City Distance Mag. Time & Date
No recent earthquake activity has been reported nearby.
Minimum magnitude displayed is 2.5.

Coastal Water Temperatures

Place Temperature
No Stations Reporting

Nearby Weather Stations